Weather forecast for Bezmiechowa

Poland, 496 m
N49.521, E22.410


Sounding

Red line — air temperature ˚C.
Blue line — thermal bubble temperature ˚C.
Green line — dew point temperature ˚C.
Wind speed is in meters per second.

Table forecast

GFS 0.25˚ model

temp. wind gust humid. clouds prec. press. hpbl
Fri22 00:00 3 269.0 w 3 9 93 100 4.3 1019 611
03:00 3 282.0 wnw 3 9 96 100 2.0 1019 538
06:00 -2 53.0 ne 6 12 95 100 4.1 1021 544
09:00 -4 45.0 ne 6 10 84 100 1.3 1027 923
12:00 -4 33.0 nne 6 10 65 85 1.4 1030 1192
15:00 -5 29.0 nne 6 11 64 43 0.0 1033 1363
18:00 -7 25.0 nne 5 12 62 31 0.1 1037 1660
21:00 -6 26.0 nne 6 11 59 100 0.1 1039 1647
 
Sat23 00:00 -7 31.0 nne 5 9 65 100 0.2 1040 1401
03:00 -7 30.0 nne 5 9 68 77 0.1 1041 1177
06:00 -8 33.0 nne 5 8 72 75 0.1 1042 1036
09:00 -6 30.0 nne 5 8 61 48 0.0 1043 1095
12:00 -4 34.0 ne 4 6 54 52 0.0 1042 1086
15:00 -5 30.0 nne 3 5 57 0 0.0 1042 974
18:00 -6 53.0 ne 1 4 71 0 0.0 1043 148
21:00 -7 99.0 e 0 1 74 39 0.0 1043 21
 
Sun24 00:00 -7 134.0 se 0 1 73 68 0.0 1043 21
03:00 -6 225.0 sw 0 0 64 99 0.0 1041 82
06:00 -6 204.0 ssw 1 1 62 87 0.0 1041 21
09:00 -0 265.0 w 1 1 34 66 0.0 1040 360
12:00 1 293.0 wnw 2 3 34 77 0.0 1039 633
15:00 0 273.0 w 2 5 53 87 0.0 1039 537
18:00 -2 233.0 sw 2 2 67 74 0.0 1039 64
21:00 -2 239.0 wsw 2 2 71 88 0.0 1039 43
 
Mon25 00:00 -2 230.0 sw 2 3 66 94 0.0 1039 86
03:00 -2 233.0 sw 2 7 62 94 0.0 1038 156
06:00 -2 244.0 wsw 2 8 62 48 0.0 1038 241
09:00 3 278.0 w 4 8 55 16 0.0 1037 484
12:00 5 295.0 wnw 4 7 63 27 0.0 1035 569
15:00 3 296.0 wnw 3 8 81 100 0.0 1035 572
18:00 1 324.0 nw 2 8 96 100 0.1 1036 382
21:00 0 320.0 nw 1 4 98 100 0.1 1035 253
 
Tue26 00:00 -1 274.0 w 1 4 99 100 0.1 1034 204
03:00 -0 265.0 w 2 7 97 100 0.0 1032 314
06:00 -0 262.0 w 2 10 94 88 0.0 1029 356
09:00 5 295.0 wnw 6 13 69 91 0.0 1026 637
12:00 3 303.0 wnw 5 13 85 94 0.1 1026 710
15:00 4 312.0 nw 5 12 86 87 0.0 1025 755
18:00 1 308.0 nw 3 15 93 53 0.0 1026 621
21:00 0 317.0 nw 4 15 93 8 0.0 1025 812
 

0.033 s